createdAt,value
2023-02-08T00:02:14.172Z,-6.18
2023-02-08T00:04:43.280Z,-6.21
2023-02-08T00:07:12.057Z,-6.26
2023-02-08T00:09:41.100Z,-6.28
2023-02-08T00:12:11.576Z,-6.29
2023-02-08T00:14:41.701Z,-6.31
2023-02-08T00:17:10.488Z,-6.33
2023-02-08T00:19:39.475Z,-6.32
2023-02-08T00:22:08.574Z,-6.33
2023-02-08T00:24:37.464Z,-6.38
2023-02-08T00:27:06.396Z,-6.46
2023-02-08T00:29:35.448Z,-6.51
2023-02-08T00:32:05.038Z,-6.52
2023-02-08T00:34:35.477Z,-6.59
2023-02-08T00:37:05.550Z,-6.60
2023-02-08T00:39:35.000Z,-6.61
2023-02-08T00:42:04.402Z,-6.59
2023-02-08T00:44:34.645Z,-6.55
2023-02-08T00:47:03.528Z,-6.53
2023-02-08T00:49:32.959Z,-6.51
2023-02-08T00:52:02.138Z,-6.52
2023-02-08T00:54:31.208Z,-6.53
2023-02-08T00:57:00.201Z,-6.54
2023-02-08T00:59:29.296Z,-6.58
2023-02-08T01:01:58.391Z,-6.63
2023-02-08T01:04:27.378Z,-6.65
2023-02-08T01:07:05.088Z,-6.66
2023-02-08T01:09:34.272Z,-6.69
2023-02-08T01:12:03.580Z,-6.72
2023-02-08T01:14:32.800Z,-6.71
2023-02-08T01:17:01.968Z,-6.69
2023-02-08T01:19:31.066Z,-6.68
2023-02-08T01:21:59.853Z,-6.68
2023-02-08T01:24:29.154Z,-6.72
2023-02-08T01:26:59.064Z,-6.71
2023-02-08T01:29:28.224Z,-6.74
2023-02-08T01:31:57.050Z,-6.73
2023-02-08T01:34:26.041Z,-6.76
2023-02-08T01:36:55.032Z,-6.78
2023-02-08T01:39:24.339Z,-6.76
2023-02-08T01:41:53.747Z,-6.74
2023-02-08T01:45:00.412Z,-6.78
2023-02-08T01:47:29.315Z,-6.83
2023-02-08T01:49:58.294Z,-6.86
2023-02-08T01:52:29.231Z,-6.88
2023-02-08T01:55:21.315Z,-6.91
2023-02-08T01:57:53.029Z,-6.95
2023-02-08T02:00:22.678Z,-6.99
2023-02-08T02:02:54.219Z,-7.03
2023-02-08T02:05:23.890Z,-7.08
2023-02-08T02:07:53.323Z,-7.14
2023-02-08T02:10:26.081Z,-7.15
2023-02-08T02:12:55.776Z,-7.16
2023-02-08T02:15:24.878Z,-7.16
2023-02-08T02:17:53.873Z,-7.17
2023-02-08T02:20:47.548Z,-7.20
2023-02-08T02:23:25.105Z,-7.25
2023-02-08T02:26:20.241Z,-7.29
2023-02-08T02:29:07.983Z,-7.36
2023-02-08T02:31:43.760Z,-7.38
2023-02-08T02:34:26.483Z,-7.39
2023-02-08T02:37:20.023Z,-7.42
2023-02-08T02:40:08.153Z,-7.38
2023-02-08T02:43:04.894Z,-7.35
2023-02-08T02:45:35.857Z,-7.32
2023-02-08T02:48:18.036Z,-7.34
2023-02-08T02:50:49.315Z,-7.37
2023-02-08T02:53:59.959Z,-7.47
2023-02-08T02:56:33.053Z,-7.50
2023-02-08T02:59:04.687Z,-7.50
2023-02-08T03:01:34.042Z,-7.52
2023-02-08T03:04:32.519Z,-7.55
2023-02-08T03:07:20.041Z,-7.56
2023-02-08T03:10:07.103Z,-7.56
2023-02-08T03:13:05.324Z,-7.59
2023-02-08T03:16:06.477Z,-7.60
2023-02-08T03:18:54.184Z,-7.56
2023-02-08T03:21:25.943Z,-7.58
2023-02-08T03:24:26.477Z,-7.66
2023-02-08T03:27:18.936Z,-7.70
2023-02-08T03:30:01.733Z,-7.68
2023-02-08T03:32:41.109Z,-7.66
2023-02-08T03:35:24.515Z,-7.64
2023-02-08T03:38:03.945Z,-7.62
2023-02-08T03:40:38.288Z,-7.66
2023-02-08T03:43:28.647Z,-7.66
2023-02-08T03:46:05.823Z,-7.69
2023-02-08T03:48:35.409Z,-7.75
2023-02-08T03:51:04.762Z,-7.76
2023-02-08T03:53:38.557Z,-7.81
2023-02-08T03:56:11.487Z,-7.84
2023-02-08T03:59:02.030Z,-7.87
2023-02-08T04:01:33.845Z,-7.92
2023-02-08T04:04:02.948Z,-7.92
2023-02-08T04:06:32.813Z,-7.95
2023-02-08T04:09:01.898Z,-7.98
2023-02-08T04:11:30.998Z,-8.00
2023-02-08T04:14:00.591Z,-8.01
2023-02-08T04:16:29.370Z,-8.06
2023-02-08T04:18:58.173Z,-8.09
2023-02-08T04:21:27.654Z,-8.08
2023-02-08T04:23:56.355Z,-8.12
2023-02-08T04:26:25.241Z,-8.20
2023-02-08T04:28:54.231Z,-8.29
2023-02-08T04:31:23.024Z,-8.33
2023-02-08T04:33:52.149Z,-8.34
2023-02-08T04:36:21.018Z,-8.35
2023-02-08T04:38:50.615Z,-8.32
2023-02-08T04:41:19.404Z,-8.29
2023-02-08T04:43:48.399Z,-8.32
2023-02-08T04:46:17.288Z,-8.35
2023-02-08T04:48:46.282Z,-8.41
2023-02-08T04:51:15.018Z,-8.45
2023-02-08T04:53:43.801Z,-8.47
2023-02-08T04:56:12.532Z,-8.49
2023-02-08T04:58:42.970Z,-8.50
2023-02-08T05:01:12.076Z,-8.48
2023-02-08T05:03:41.156Z,-8.49
2023-02-08T05:06:09.944Z,-8.49
2023-02-08T05:08:39.250Z,-8.47
2023-02-08T05:11:08.444Z,-8.48
2023-02-08T05:13:37.565Z,-8.53
2023-02-08T05:16:07.344Z,-8.55
2023-02-08T05:18:38.391Z,-8.50
2023-02-08T05:21:07.482Z,-8.52
2023-02-08T05:23:36.886Z,-8.59
2023-02-08T05:26:07.322Z,-8.61
2023-02-08T05:28:36.331Z,-8.57
2023-02-08T05:31:11.445Z,-8.50
2023-02-08T05:33:40.233Z,-8.47
2023-02-08T05:36:09.421Z,-8.50
2023-02-08T05:38:38.621Z,-8.49
2023-02-08T05:41:07.632Z,-8.47
2023-02-08T05:43:36.584Z,-8.48
2023-02-08T05:46:05.613Z,-8.45
2023-02-08T05:48:34.416Z,-8.38
2023-02-08T05:51:03.406Z,-8.33
2023-02-08T05:53:32.475Z,-8.27
2023-02-08T05:56:01.598Z,-8.25
2023-02-08T05:58:30.764Z,-8.21
2023-02-08T06:00:59.682Z,-8.20
2023-02-08T06:03:28.771Z,-8.16
2023-02-08T06:06:01.134Z,-8.12
2023-02-08T06:08:30.019Z,-8.03
2023-02-08T06:10:59.103Z,-7.93
2023-02-08T06:13:29.507Z,-7.85
2023-02-08T06:15:58.664Z,-7.82
2023-02-08T06:18:27.616Z,-7.81
2023-02-08T06:20:56.811Z,-7.77
2023-02-08T06:23:25.807Z,-7.71
2023-02-08T06:25:54.821Z,-7.66
2023-02-08T06:28:24.144Z,-7.61
2023-02-08T06:30:54.421Z,-7.60
2023-02-08T06:33:23.639Z,-7.55
2023-02-08T06:35:53.549Z,-7.51
2023-02-08T06:38:23.494Z,-7.47
2023-02-08T06:40:53.298Z,-7.41
2023-02-08T06:43:22.363Z,-7.36
2023-02-08T06:45:51.072Z,-7.31
2023-02-08T06:48:20.855Z,-7.25
2023-02-08T06:50:52.408Z,-7.22
2023-02-08T06:53:22.010Z,-7.21
2023-02-08T06:55:51.003Z,-7.15
2023-02-08T06:58:20.656Z,-7.09
2023-02-08T07:00:51.331Z,-7.08
2023-02-08T07:03:20.645Z,-7.02
2023-02-08T07:06:03.824Z,-6.99
2023-02-08T07:08:34.216Z,-6.93
2023-02-08T07:11:12.924Z,-6.89
2023-02-08T07:13:42.131Z,-6.81
2023-02-08T07:16:10.673Z,-6.77
2023-02-08T07:18:40.208Z,-6.77
2023-02-08T07:21:08.887Z,-6.74
2023-02-08T07:23:39.046Z,-6.70
2023-02-08T07:26:10.090Z,-6.71
2023-02-08T07:28:39.247Z,-6.71
2023-02-08T07:31:13.070Z,-6.66
2023-02-08T07:33:41.843Z,-6.64
2023-02-08T07:36:11.067Z,-6.58
2023-02-08T07:38:39.659Z,-6.49
2023-02-08T07:41:10.259Z,-6.39
2023-02-08T07:43:39.566Z,-6.34
2023-02-08T07:46:09.178Z,-6.26
2023-02-08T07:48:40.165Z,-6.19
2023-02-08T07:51:10.246Z,-6.13
2023-02-08T07:53:39.461Z,-6.07
2023-02-08T07:56:08.208Z,-6.02
2023-02-08T07:58:38.082Z,-6.01
2023-02-08T08:01:20.989Z,-5.98
2023-02-08T08:03:51.340Z,-5.90
2023-02-08T08:06:20.875Z,-5.79
2023-02-08T08:08:51.004Z,-5.67
2023-02-08T08:11:20.407Z,-5.54
2023-02-08T08:13:50.645Z,-5.47
2023-02-08T08:16:19.418Z,-5.40
2023-02-08T08:18:49.634Z,-5.28
2023-02-08T08:21:18.712Z,-5.16
2023-02-08T08:23:47.499Z,-5.11
2023-02-08T08:26:18.542Z,-5.09
2023-02-08T08:28:47.306Z,-4.99
2023-02-08T08:31:18.889Z,-4.85
2023-02-08T08:33:47.777Z,-4.76
2023-02-08T08:36:17.141Z,-4.68
2023-02-08T08:38:46.287Z,-4.61
2023-02-08T08:41:17.434Z,-4.47
2023-02-08T08:43:46.429Z,-4.34
2023-02-08T08:46:16.932Z,-4.22
2023-02-08T08:48:46.334Z,-4.13
2023-02-08T08:51:15.239Z,-4.02
2023-02-08T08:53:43.608Z,-3.94
2023-02-08T08:56:12.404Z,-3.87
2023-02-08T08:58:41.178Z,-3.79
2023-02-08T09:01:09.771Z,-3.73
2023-02-08T09:03:38.843Z,-3.63
2023-02-08T09:06:07.991Z,-3.53
2023-02-08T09:08:37.146Z,-3.44
2023-02-08T09:11:15.973Z,-3.45
2023-02-08T09:13:44.456Z,-3.40
2023-02-08T09:16:14.889Z,-3.25
2023-02-08T09:18:44.276Z,-3.08
2023-02-08T09:22:19.094Z,-2.94
2023-02-08T09:24:49.128Z,-2.66
2023-02-08T09:27:19.326Z,-2.42
2023-02-08T09:29:48.846Z,-2.15
2023-02-08T09:32:18.093Z,-1.86
2023-02-08T09:34:47.259Z,-1.46
2023-02-08T09:37:18.500Z,-0.92
2023-02-08T09:39:47.783Z,-0.34
2023-02-08T09:42:40.643Z,0.26
2023-02-08T09:45:24.492Z,0.89
2023-02-08T09:48:14.671Z,1.40
2023-02-08T09:50:47.233Z,1.88
2023-02-08T09:53:26.113Z,2.26
2023-02-08T09:56:05.696Z,2.69
2023-02-08T09:58:34.537Z,3.15
2023-02-08T10:01:07.699Z,3.53
2023-02-08T10:03:38.712Z,4.00
2023-02-08T10:06:09.765Z,4.39
2023-02-08T10:08:38.657Z,4.65
2023-02-08T10:11:40.106Z,4.89
2023-02-08T10:14:21.829Z,5.08
2023-02-08T10:17:21.318Z,5.33
2023-02-08T10:19:52.961Z,5.66
2023-02-08T10:22:25.031Z,5.93
2023-02-08T10:24:56.583Z,6.05
2023-02-08T10:27:37.985Z,6.19
2023-02-08T10:30:28.532Z,6.47
2023-02-08T10:33:02.483Z,6.71
2023-02-08T10:35:50.770Z,6.82
2023-02-08T10:38:19.610Z,7.09
2023-02-08T10:40:52.501Z,7.38
2023-02-08T10:43:37.355Z,7.55
2023-02-08T10:46:08.832Z,7.58
2023-02-08T10:49:09.953Z,7.53
2023-02-08T10:51:39.565Z,7.53
2023-02-08T10:54:14.955Z,7.61
2023-02-08T10:56:46.908Z,7.79
2023-02-08T10:59:22.476Z,8.09
2023-02-08T11:01:51.730Z,8.36
2023-02-08T11:04:20.710Z,8.68
2023-02-08T11:06:50.637Z,8.90
2023-02-08T11:09:31.019Z,8.92
2023-02-08T11:12:03.644Z,8.88
2023-02-08T11:14:46.904Z,8.95
2023-02-08T11:17:30.488Z,9.37
2023-02-08T11:19:59.743Z,9.76
2023-02-08T11:22:31.545Z,9.97
2023-02-08T11:25:02.440Z,10.20
2023-02-08T11:27:33.143Z,10.49
2023-02-08T11:30:15.037Z,10.67
2023-02-08T11:32:44.335Z,10.75
2023-02-08T11:35:26.549Z,10.77
2023-02-08T11:37:57.082Z,10.86
2023-02-08T11:40:38.360Z,10.93
2023-02-08T11:43:08.257Z,10.83
2023-02-08T11:45:37.467Z,10.80
2023-02-08T11:48:06.560Z,11.02
2023-02-08T11:50:37.208Z,11.19
2023-02-08T11:53:21.598Z,11.26
2023-02-08T11:56:19.914Z,11.34
2023-02-08T11:59:16.455Z,11.44
2023-02-08T12:01:45.447Z,11.41
2023-02-08T12:04:15.483Z,11.46
2023-02-08T12:06:56.561Z,11.61
2023-02-08T12:09:28.081Z,11.84
2023-02-08T12:12:17.985Z,11.81
2023-02-08T12:14:55.694Z,11.73
2023-02-08T12:17:40.438Z,11.79
2023-02-08T12:20:19.145Z,11.80
2023-02-08T12:22:57.876Z,11.94
2023-02-08T12:25:33.165Z,12.13
2023-02-08T12:28:48.103Z,12.30
2023-02-08T12:35:50.948Z,12.14
2023-02-08T12:39:19.408Z,11.99
2023-02-08T12:42:13.663Z,11.55
2023-02-08T12:45:02.058Z,11.38
2023-02-08T12:47:49.263Z,11.45
2023-02-08T12:51:04.846Z,11.42
2023-02-08T12:53:38.209Z,11.28
2023-02-08T12:56:11.744Z,11.08
2023-02-08T12:58:46.456Z,10.69
2023-02-08T13:01:23.350Z,10.27
2023-02-08T13:04:26.711Z,9.72
2023-02-08T13:06:59.973Z,9.35
2023-02-08T13:09:35.868Z,9.31
2023-02-08T13:12:09.213Z,9.37
2023-02-08T13:14:50.331Z,9.29
2023-02-08T13:17:30.921Z,9.11
2023-02-08T13:20:05.716Z,8.72
2023-02-08T13:22:39.764Z,8.45
2023-02-08T13:25:15.640Z,8.22
2023-02-08T13:27:44.578Z,8.17
2023-02-08T13:30:21.054Z,7.99
2023-02-08T13:32:51.176Z,7.34
2023-02-08T13:35:28.576Z,6.74
2023-02-08T13:38:08.302Z,6.21
2023-02-08T13:40:37.503Z,5.90
2023-02-08T13:43:34.307Z,5.95
2023-02-08T13:46:04.502Z,6.12
2023-02-08T13:48:43.609Z,6.06
2023-02-08T13:51:31.443Z,5.57
2023-02-08T13:54:01.594Z,4.72
2023-02-08T13:56:50.825Z,3.90
2023-02-08T13:59:34.290Z,3.11
2023-02-08T14:02:12.174Z,2.51
2023-02-08T14:04:42.742Z,1.99
2023-02-08T14:07:12.095Z,1.59
2023-02-08T14:09:54.798Z,1.29
2023-02-08T14:12:43.863Z,0.98
2023-02-08T14:15:17.569Z,0.59
2023-02-08T14:17:51.473Z,0.31
2023-02-08T14:20:21.902Z,0.03
2023-02-08T14:22:52.664Z,-0.16
2023-02-08T14:25:30.244Z,-0.30
2023-02-08T14:28:00.651Z,-0.45
2023-02-08T14:30:31.986Z,-0.61
2023-02-08T14:33:05.390Z,-0.73
2023-02-08T14:35:40.526Z,-0.82
2023-02-08T14:38:24.472Z,-0.94
2023-02-08T14:40:55.111Z,-1.09
2023-02-08T14:43:40.949Z,-1.20
2023-02-08T14:46:38.116Z,-1.34
2023-02-08T14:49:17.386Z,-1.46
2023-02-08T14:51:50.699Z,-1.64
2023-02-08T14:54:57.987Z,-1.82
2023-02-08T14:57:37.500Z,-1.99
2023-02-08T15:00:08.858Z,-2.13
2023-02-08T15:02:37.595Z,-2.21
2023-02-08T15:05:46.875Z,-2.32
2023-02-08T15:08:20.711Z,-2.39
2023-02-08T15:10:49.381Z,-2.45
2023-02-08T15:13:33.423Z,-2.54
2023-02-08T15:17:18.014Z,-2.65
2023-02-08T15:19:47.069Z,-2.77
2023-02-08T15:22:37.372Z,-2.81
2023-02-08T15:25:29.000Z,-2.88
2023-02-08T15:28:00.286Z,-2.97
2023-02-08T15:30:38.056Z,-3.02
2023-02-08T15:33:14.902Z,-3.06
2023-02-08T15:35:44.202Z,-3.09
2023-02-08T15:38:19.720Z,-3.12
2023-02-08T15:41:06.952Z,-3.16
2023-02-08T15:43:37.042Z,-3.22
2023-02-08T15:46:16.599Z,-3.27
2023-02-08T15:48:46.333Z,-3.28
2023-02-08T15:51:16.545Z,-3.30
2023-02-08T15:53:46.577Z,-3.32
2023-02-08T15:56:24.049Z,-3.32
2023-02-08T15:59:03.509Z,-3.31
2023-02-08T16:01:34.241Z,-3.37
2023-02-08T16:04:06.224Z,-3.42
2023-02-08T16:06:39.766Z,-3.52
2023-02-08T16:09:15.835Z,-3.58
2023-02-08T16:11:49.330Z,-3.64
2023-02-08T16:14:24.206Z,-3.73
2023-02-08T16:16:57.655Z,-3.81
2023-02-08T16:19:32.811Z,-3.87
2023-02-08T16:22:35.799Z,-3.93
2023-02-08T16:25:45.469Z,-3.96
2023-02-08T16:28:32.485Z,-4.02
2023-02-08T16:31:03.307Z,-4.08
2023-02-08T16:33:33.250Z,-4.10
2023-02-08T16:36:02.365Z,-4.13
2023-02-08T16:38:34.134Z,-4.18
2023-02-08T16:41:12.659Z,-4.18
2023-02-08T16:43:44.221Z,-4.16
2023-02-08T16:46:18.240Z,-4.14
2023-02-08T16:48:51.860Z,-4.15
2023-02-08T16:51:27.552Z,-4.22
2023-02-08T16:54:07.891Z,-4.29
2023-02-08T16:56:37.683Z,-4.30
2023-02-08T16:59:06.158Z,-4.29
2023-02-08T17:02:19.089Z,-4.35
2023-02-08T17:04:51.700Z,-4.40
2023-02-08T17:07:20.692Z,-4.44
2023-02-08T17:09:50.677Z,-4.44
2023-02-08T17:12:22.724Z,-4.45
2023-02-08T17:14:52.668Z,-4.49
2023-02-08T17:17:22.182Z,-4.54
2023-02-08T17:19:52.189Z,-4.52
2023-02-08T17:22:21.371Z,-4.50
2023-02-08T17:28:41.018Z,-4.48
2023-02-08T17:31:12.127Z,-4.54
2023-02-08T17:33:41.719Z,-4.56
2023-02-08T17:36:11.632Z,-4.59
2023-02-08T17:39:02.025Z,-4.62
2023-02-08T17:41:40.442Z,-4.68
2023-02-08T17:44:11.331Z,-4.77
2023-02-08T17:46:40.374Z,-4.85
2023-02-08T17:49:09.769Z,-4.95
2023-02-08T17:51:38.051Z,-5.02
2023-02-08T17:54:07.052Z,-5.05
2023-02-08T17:56:36.750Z,-5.07
2023-02-08T17:59:06.366Z,-5.08
2023-02-08T18:01:36.086Z,-5.07
2023-02-08T18:04:04.959Z,-5.08
2023-02-08T18:06:34.866Z,-5.09
2023-02-08T18:09:03.763Z,-5.09
2023-02-08T18:11:33.984Z,-5.13
2023-02-08T18:14:03.194Z,-5.18
2023-02-08T18:16:36.378Z,-5.23
2023-02-08T18:19:05.883Z,-5.30
2023-02-08T18:21:35.160Z,-5.34
2023-02-08T18:24:06.370Z,-5.36
2023-02-08T18:26:36.981Z,-5.43
2023-02-08T18:29:06.277Z,-5.43
2023-02-08T18:31:35.841Z,-5.46
2023-02-08T18:34:05.253Z,-5.50
2023-02-08T18:36:34.549Z,-5.48
2023-02-08T18:39:03.753Z,-5.54
2023-02-08T18:41:32.843Z,-5.62
2023-02-08T18:44:03.481Z,-5.67
2023-02-08T18:46:32.480Z,-5.68
2023-02-08T18:49:01.251Z,-5.70
2023-02-08T18:51:32.196Z,-5.73
2023-02-08T18:54:01.520Z,-5.78
2023-02-08T18:56:32.793Z,-5.81
2023-02-08T18:59:01.834Z,-5.84
2023-02-08T19:01:31.182Z,-5.78
2023-02-08T19:04:00.757Z,-5.76
2023-02-08T19:06:31.932Z,-5.77
2023-02-08T19:09:03.010Z,-5.79
2023-02-08T19:11:37.376Z,-5.82
2023-02-08T19:14:09.280Z,-5.81
2023-02-08T19:16:38.740Z,-5.80
2023-02-08T19:19:08.041Z,-5.77
2023-02-08T19:21:38.547Z,-5.76
2023-02-08T19:24:07.871Z,-5.77
2023-02-08T19:26:40.158Z,-5.75
2023-02-08T19:29:11.656Z,-5.77
2023-02-08T19:31:41.013Z,-5.76
2023-02-08T19:34:11.189Z,-5.74
2023-02-08T19:36:46.746Z,-5.74
2023-02-08T19:39:17.196Z,-5.77
2023-02-08T19:41:46.878Z,-5.81
2023-02-08T19:44:18.301Z,-5.90
2023-02-08T19:46:48.533Z,-5.98
2023-02-08T19:49:17.759Z,-6.02
2023-02-08T19:51:46.850Z,-6.02
2023-02-08T19:54:18.808Z,-5.99
2023-02-08T19:56:47.581Z,-5.95
2023-02-08T19:59:18.897Z,-5.93
2023-02-08T20:01:48.342Z,-5.94
2023-02-08T20:04:18.041Z,-6.01
2023-02-08T20:06:47.266Z,-6.03
2023-02-08T20:09:17.259Z,-6.08
2023-02-08T20:12:01.462Z,-6.14
2023-02-08T20:14:33.288Z,-6.14
2023-02-08T20:17:02.802Z,-6.11
2023-02-08T20:19:31.970Z,-6.09
2023-02-08T20:22:01.163Z,-6.08
2023-02-08T20:24:30.678Z,-6.09
2023-02-08T20:27:00.274Z,-6.11
2023-02-08T20:29:29.671Z,-6.10
2023-02-08T20:32:09.526Z,-6.11
2023-02-08T20:34:40.958Z,-6.14
2023-02-08T20:37:20.938Z,-6.14
2023-02-08T20:39:50.220Z,-6.08
2023-02-08T20:42:19.414Z,-6.03
2023-02-08T20:44:48.719Z,-6.04
2023-02-08T20:47:22.523Z,-6.07
2023-02-08T20:49:51.827Z,-6.09
2023-02-08T20:52:21.127Z,-6.09
2023-02-08T20:54:50.833Z,-6.06
2023-02-08T20:57:20.026Z,-6.05
2023-02-08T20:59:50.826Z,-6.07
2023-02-08T21:02:23.785Z,-6.08
2023-02-08T21:04:52.657Z,-6.04
2023-02-08T21:07:21.537Z,-6.03
2023-02-08T21:09:50.345Z,-6.08
2023-02-08T21:12:19.421Z,-6.16
2023-02-08T21:14:49.016Z,-6.18
2023-02-08T21:17:19.148Z,-6.18
2023-02-08T21:19:48.027Z,-6.16
2023-02-08T21:22:17.721Z,-6.17
2023-02-08T21:24:46.733Z,-6.27
2023-02-08T21:27:16.072Z,-6.33
2023-02-08T21:29:45.535Z,-6.35
2023-02-08T21:32:14.140Z,-6.40
2023-02-08T21:34:43.308Z,-6.42
2023-02-08T21:37:12.201Z,-6.42
2023-02-08T21:39:41.407Z,-6.43
2023-02-08T21:42:10.350Z,-6.49
2023-02-08T21:44:39.994Z,-6.55
2023-02-08T21:47:09.192Z,-6.55
2023-02-08T21:49:56.616Z,-6.54
2023-02-08T21:52:44.251Z,-6.58
2023-02-08T21:55:13.242Z,-6.65
2023-02-08T21:57:43.536Z,-6.68
2023-02-08T22:00:13.302Z,-6.66
2023-02-08T22:02:42.402Z,-6.65
2023-02-08T22:05:11.844Z,-6.63
2023-02-08T22:07:49.076Z,-6.60
2023-02-08T22:10:19.922Z,-6.60
2023-02-08T22:12:49.353Z,-6.64
2023-02-08T22:15:19.513Z,-6.64
2023-02-08T22:17:48.538Z,-6.64
2023-02-08T22:20:18.932Z,-6.65
2023-02-08T22:22:47.925Z,-6.71
2023-02-08T22:25:17.020Z,-6.73
2023-02-08T22:27:46.528Z,-6.77
2023-02-08T22:30:16.665Z,-6.82
2023-02-08T22:32:46.970Z,-6.81
2023-02-08T22:35:16.850Z,-6.81
2023-02-08T22:37:45.711Z,-6.80
2023-02-08T22:40:14.784Z,-6.80
2023-02-08T22:42:44.176Z,-6.88
2023-02-08T22:45:13.485Z,-6.89
2023-02-08T22:47:42.781Z,-6.87
2023-02-08T22:50:12.585Z,-6.86
2023-02-08T22:52:41.708Z,-6.84
2023-02-08T22:55:10.679Z,-6.77
2023-02-08T22:57:39.496Z,-6.77
2023-02-08T23:00:09.274Z,-6.77
2023-02-08T23:02:38.778Z,-6.77
2023-02-08T23:05:08.288Z,-6.80
2023-02-08T23:07:38.144Z,-6.85
2023-02-08T23:10:10.360Z,-6.93
2023-02-08T23:12:40.210Z,-6.96
2023-02-08T23:15:10.862Z,-6.97
2023-02-08T23:17:40.107Z,-6.98
2023-02-08T23:20:09.656Z,-6.98
2023-02-08T23:22:40.342Z,-6.96
2023-02-08T23:25:09.036Z,-6.97
2023-02-08T23:27:37.830Z,-6.96
2023-02-08T23:30:09.501Z,-6.93
2023-02-08T23:32:38.791Z,-6.93
2023-02-08T23:35:08.995Z,-6.90
2023-02-08T23:37:38.083Z,-6.88
2023-02-08T23:40:07.381Z,-6.87
2023-02-08T23:42:36.489Z,-6.87
2023-02-08T23:45:05.509Z,-6.88
2023-02-08T23:47:34.889Z,-6.91
2023-02-08T23:50:03.559Z,-6.95
2023-02-08T23:52:33.815Z,-6.98
2023-02-08T23:55:02.368Z,-6.97
2023-02-08T23:57:35.061Z,-6.97
